AirNav   Air Wisconsin Up To $57,000 Bonus
 
 928 users online  

E42 Major Samuel B Cornelius Field Airport
Spearman, Texas, USA

GOING TO SPEARMAN?


FAA INFORMATION EFFECTIVE 18 JULY 2019

Location

FAA Identifier: E42
Lat/Long: 36-13-15.6000N / 101-11-40.2000W
36-13.260000N / 101-11.670000W
36.2210000 / -101.1945000
(estimated)
Elevation: 3090 ft. / 941.8 m (surveyed)
Variation: 09E (1985)
From city: 1 mile N of SPEARMAN, TX
Time zone: UTC -5 (UTC -6 during Standard Time)
Zip code: 79081

Airport Operations

Airport use: Open to the public
Activation date: 06/1982
Control tower: no
ARTCC: ALBUQUERQUE CENTER
FSS: FORT WORTH FLIGHT SERVICE STATION
NOTAMs facility: FTW (NOTAM-D service available)
Attendance: UNATNDD
Wind indicator: lighted
Segmented circle: yes
Lights: MIRL RY 02/20 PRESET LOW INTST; TO INCR INTST & ACTVT PAPI RYS 02 & 20 - 122.9.
Beacon: white-green (lighted land airport)
Operates sunset to sunrise.

Airport Communications

CTAF: 122.9
  • APCH/DEP SVC PRVDD BY ALBUQUERQUE ARTCC ON FREQS 127.85/285.475 (AMARILLO RCAG).

Nearby radio navigation aids

VOR radial/distance  VOR name  Freq  Var
BGDr009/26.5BORGER VORTAC108.6011E

 
NDB name  Hdg/Dist  Freq  Var  ID
PERRYTON235/24.526607EPYX .--. -.-- -..-
GUYMON144/32.727509EGUY --. ..- -.--

Airport Services

Fuel available: 100LL
FOR FUEL CALL 806-659-2422 & HGR SPACE 806-659-2524 MON-SAT 0730-1900.
Parking: hangars and tiedowns

Runway Information

Runway 2/20

Dimensions: 5022 x 75 ft. / 1531 x 23 m
Surface: asphalt, in good condition
Weight bearing capacity: 
Single wheel: 12.5
Runway edge lights: medium intensity
RUNWAY 2  RUNWAY 20
Latitude: 36-12.900080N36-13.621058N
Longitude: 101-11.920572W101-11.419197W
Elevation: 3086.2 ft.3090.0 ft.
Traffic pattern: leftleft
Runway heading: 020 magnetic, 029 true200 magnetic, 209 true
Markings: nonprecision, in good conditionnonprecision, in good condition
Visual slope indicator: 2-light PAPI on left (3.00 degrees glide path)
PAPI OTS
2-light PAPI on left (3.00 degrees glide path)
Touchdown point: yes, no lightsyes, no lights
Obstructions: 10 ft. road, 534 ft. from runway, 299 ft. right of centerline, 33:1 slope to clearnone

Airport Ownership and Management from official FAA records

Ownership: Publicly-owned
Owner: CITY OF SPEARMAN
PO BOX 37
SPEARMAN, TX 79081
Phone 806-659-2524
Manager: SUSAN BELLSNYDER
PO BOX 37
SPEARMAN, TX 79081
Phone 806-659-2524
CITY MANAGER.

Airport Operational Statistics

Aircraft based on the field: 12
Single engine airplanes: 10
Ultralights: 2
    
Aircraft operations: avg 63/week *
67% local general aviation
33% transient general aviation
* for 12-month period ending 20 September 2017

Additional Remarks

NO LINE OF SIGHT BTN RY ENDS.
FOR CD CTC ALBUQUERQUE ARTCC AT 505-856-4861.

Instrument Procedures

NOTE: All procedures below are presented as PDF files. If you need a reader for these files, you should download the free Adobe Reader.

NOT FOR NAVIGATION. Please procure official charts for flight.
FAA instrument procedures published for use from 18 July 2019 at 0901Z to 16 August 2019 at 0900Z.

 
IAPs - Instrument Approach Procedures
RNAV (GPS) RWY 02   download
RNAV (GPS) RWY 20   download
VOR/DME RWY 02   download
NOTE: Special Take-Off Minimums/Departure Procedures apply   download (113KB)

Other nearby airports with instrument procedures:

E19 - Gruver Municipal Airport (12 nm W)
KPYX - Perryton Ochiltree County Airport (24 nm NE)
KGUY - Guymon Municipal Airport (32 nm NW)
KBGD - Hutchinson County Airport (33 nm S)
KPPA - Perry Lefors Field Airport (38 nm S)
 
Loc | Ops | Rwys | IFR | FBO | Links
Com | Nav | Svcs | Stats | Notes

AirBoss

 
Area around E42 (Major Samuel B Cornelius Field Airport)
 
Road maps at: MapQuest Bing Google
 
Aerial photo
WARNING: Photo may not be current or correct
Aerial photo of E42 (Major Samuel B Cornelius Field Airport)
Photo by Kathy Cook.
Photo taken 11-Jul-2010

Do you have a better or more recent aerial photo of Major Samuel B Cornelius Field Airport that you would like to share? If so, please send us your photo.

 
Sectional chart

 
Airport distance calculator
Flying to Major Samuel B Cornelius Field Airport? Find the distance to fly.

From to E42

Sunrise and sunset
Times for 20-Jul-2019
 Local
(UTC-5)
 Zulu
(UTC)
Morning civil twilight06:1411:14
Sunrise06:4311:43
Sunset20:5901:59
Evening civil twilight21:2802:28

Current date and time
Zulu (UTC)  21-Jul-2019 02:17:37
Local (UTC-5)  20-Jul-2019 21:17:37
 
METAR
KBPC 
21nm S 
210155Z AUTO 15017G23KT 10SM CLR 33/12 A2981 RMK AO2
KPYX 
25nm NE 
210155Z AUTO 14015KT 10SM CLR 32/13 A2982 RMK AO2 T03240130
KGUY 
31nm NW 
210153Z AUTO 15014G19KT 10SM CLR 34/14 A2979 RMK AO2 SLP025 T03390144
KBGD 
33nm S 
210151Z AUTO 15013G20KT 10SM CLR 37/13 A2981 RMK AO2 SLP038 T03670128
TAF
KGUY 
31nm NW 
202045Z 2021/2118 20014KT P6SM FEW200 FM210100 17014KT P6SM VCTS SCT080CB TEMPO 2103/2107 4SM TSRA BKN060CB FM210900 36008KT P6SM BKN200
NOTAMs
Click for the latest NOTAMs
NOTAMs are issued by the DoD/FAA and will open in a separate window not controlled by AirNav.

 

 
 

FBO, Fuel Providers, and Aircraft Ground Support

  
 Business Name 
 
 Contact 
 
 Services / Description 
 
Fuel Prices
 
Comments
  
City of Spearman (FBO) 806-659-2524
no information available

If you are affiliated with City of Spearman (FBO) and would like to show here your services, contact info, web link, logo, and more, click here
100LL
AS $4.32 
 Updated 29-Mar-2019
 
   write
AS=Assisted/Self Service
Update Fuel Prices
 

Would you like to see your business listed on this page?

 If your business provides an interesting product or service to pilots, flight crews, aircraft, or users of the Major Samuel B Cornelius Field Airport, you should consider listing it here.  To start the listing process, click on the button below
 
Add a business
 

Other Pages about Major Samuel B Cornelius Field Airport

Update a link
 
Copyright © AirNav, LLC. All rights reserved. Privacy Policy  Contact